sensor_id;sensor_type;location;lat;lon;timestamp;temperature;humidity
27779;DHT22;30234;48.090;11.464;2023-06-26T00:00:34;13.60;99.90
27779;DHT22;30234;48.090;11.464;2023-06-26T00:04:35;13.60;99.90
27779;DHT22;30234;48.090;11.464;2023-06-26T00:08:37;13.40;99.90
27779;DHT22;30234;48.090;11.464;2023-06-26T00:12:38;13.40;99.90
27779;DHT22;30234;48.090;11.464;2023-06-26T00:16:39;13.50;99.90
27779;DHT22;30234;48.090;11.464;2023-06-26T00:20:40;13.40;99.90
27779;DHT22;30234;48.090;11.464;2023-06-26T00:24:41;13.40;99.90
27779;DHT22;30234;48.090;11.464;2023-06-26T00:28:42;13.50;99.90
27779;DHT22;30234;48.090;11.464;2023-06-26T00:32:42;13.40;99.90
27779;DHT22;30234;48.090;11.464;2023-06-26T00:36:43;13.40;99.90
27779;DHT22;30234;48.090;11.464;2023-06-26T00:40:44;13.20;99.90
27779;DHT22;30234;48.090;11.464;2023-06-26T00:44:45;13.00;99.90
27779;DHT22;30234;48.090;11.464;2023-06-26T00:48:47;13.00;99.90
27779;DHT22;30234;48.090;11.464;2023-06-26T00:52:49;12.90;99.90
27779;DHT22;30234;48.090;11.464;2023-06-26T00:56:49;12.80;99.90
27779;DHT22;30234;48.090;11.464;2023-06-26T01:00:51;12.80;99.90
27779;DHT22;30234;48.090;11.464;2023-06-26T01:04:53;12.70;99.90
27779;DHT22;30234;48.090;11.464;2023-06-26T01:08:54;12.70;99.90
27779;DHT22;30234;48.090;11.464;2023-06-26T01:12:57;12.60;99.90
27779;DHT22;30234;48.090;11.464;2023-06-26T01:17:00;12.60;99.90
27779;DHT22;30234;48.090;11.464;2023-06-26T01:21:02;12.60;99.90
27779;DHT22;30234;48.090;11.464;2023-06-26T01:29:23;12.70;99.90
27779;DHT22;30234;48.090;11.464;2023-06-26T01:33:25;12.80;99.90
27779;DHT22;30234;48.090;11.464;2023-06-26T01:37:26;12.90;99.90
27779;DHT22;30234;48.090;11.464;2023-06-26T01:41:27;12.90;99.90
27779;DHT22;30234;48.090;11.464;2023-06-26T01:45:29;12.90;99.90
27779;DHT22;30234;48.090;11.464;2023-06-26T01:49:54;12.80;99.90
27779;DHT22;30234;48.090;11.464;2023-06-26T01:54:00;12.80;99.90
27779;DHT22;30234;48.090;11.464;2023-06-26T01:58:02;12.70;99.90
27779;DHT22;30234;48.090;11.464;2023-06-26T02:02:07;12.70;99.90
27779;DHT22;30234;48.090;11.464;2023-06-26T02:06:08;12.70;99.90
27779;DHT22;30234;48.090;11.464;2023-06-26T02:10:09;12.70;99.90
27779;DHT22;30234;48.090;11.464;2023-06-26T02:14:10;12.70;99.90
27779;DHT22;30234;48.090;11.464;2023-06-26T02:18:12;12.60;99.90
27779;DHT22;30234;48.090;11.464;2023-06-26T02:22:14;12.60;99.90
27779;DHT22;30234;48.090;11.464;2023-06-26T02:26:15;12.60;99.90
27779;DHT22;30234;48.090;11.464;2023-06-26T02:30:16;12.60;99.90
27779;DHT22;30234;48.090;11.464;2023-06-26T02:34:17;12.70;99.90
27779;DHT22;30234;48.090;11.464;2023-06-26T02:38:18;12.80;99.90
27779;DHT22;30234;48.090;11.464;2023-06-26T02:42:19;13.00;99.90
27779;DHT22;30234;48.090;11.464;2023-06-26T02:46:20;13.10;99.90
27779;DHT22;30234;48.090;11.464;2023-06-26T02:50:21;13.00;99.90
27779;DHT22;30234;48.090;11.464;2023-06-26T02:54:22;12.90;99.90
27779;DHT22;30234;48.090;11.464;2023-06-26T02:58:22;12.80;99.90
27779;DHT22;30234;48.090;11.464;2023-06-26T03:02:23;12.80;99.90
27779;DHT22;30234;48.090;11.464;2023-06-26T03:06:24;12.80;99.90
27779;DHT22;30234;48.090;11.464;2023-06-26T03:10:25;12.70;99.90
27779;DHT22;30234;48.090;11.464;2023-06-26T03:14:26;12.70;99.90
27779;DHT22;30234;48.090;11.464;2023-06-26T03:18:27;12.70;99.90
27779;DHT22;30234;48.090;11.464;2023-06-26T03:22:28;12.70;99.90
27779;DHT22;30234;48.090;11.464;2023-06-26T03:26:29;12.90;99.90
27779;DHT22;30234;48.090;11.464;2023-06-26T03:30:30;13.00;99.90
27779;DHT22;30234;48.090;11.464;2023-06-26T03:34:31;13.10;99.90
27779;DHT22;30234;48.090;11.464;2023-06-26T03:38:33;13.20;99.90
27779;DHT22;30234;48.090;11.464;2023-06-26T03:42:33;13.20;99.90
27779;DHT22;30234;48.090;11.464;2023-06-26T03:46:34;13.30;99.90
27779;DHT22;30234;48.090;11.464;2023-06-26T03:50:35;13.50;99.90
27779;DHT22;30234;48.090;11.464;2023-06-26T03:54:36;13.60;99.90
27779;DHT22;30234;48.090;11.464;2023-06-26T03:58:37;13.90;99.90
27779;DHT22;30234;48.090;11.464;2023-06-26T04:02:38;14.30;99.90
27779;DHT22;30234;48.090;11.464;2023-06-26T04:06:39;14.50;99.90
27779;DHT22;30234;48.090;11.464;2023-06-26T04:10:40;14.60;99.90
27779;DHT22;30234;48.090;11.464;2023-06-26T04:14:41;15.50;99.90
27779;DHT22;30234;48.090;11.464;2023-06-26T04:18:42;16.60;99.90
27779;DHT22;30234;48.090;11.464;2023-06-26T04:22:42;16.70;99.90
27779;DHT22;30234;48.090;11.464;2023-06-26T04:26:43;17.50;99.90
27779;DHT22;30234;48.090;11.464;2023-06-26T04:30:45;19.50;99.90
27779;DHT22;30234;48.090;11.464;2023-06-26T04:34:46;20.70;99.90
27779;DHT22;30234;48.090;11.464;2023-06-26T04:38:48;20.20;99.90
27779;DHT22;30234;48.090;11.464;2023-06-26T04:42:49;19.80;99.90
27779;DHT22;30234;48.090;11.464;2023-06-26T04:46:50;20.10;99.90
27779;DHT22;30234;48.090;11.464;2023-06-26T04:50:52;20.40;99.90
27779;DHT22;30234;48.090;11.464;2023-06-26T04:54:54;20.70;99.90
27779;DHT22;30234;48.090;11.464;2023-06-26T04:58:55;21.80;99.90
27779;DHT22;30234;48.090;11.464;2023-06-26T05:02:56;23.90;99.90
27779;DHT22;30234;48.090;11.464;2023-06-26T05:07:01;25.90;97.90
27779;DHT22;30234;48.090;11.464;2023-06-26T05:11:01;27.40;90.60
27779;DHT22;30234;48.090;11.464;2023-06-26T05:15:03;28.30;80.60
27779;DHT22;30234;48.090;11.464;2023-06-26T05:19:04;28.50;75.10
27779;DHT22;30234;48.090;11.464;2023-06-26T05:23:05;28.70;71.90
27779;DHT22;30234;48.090;11.464;2023-06-26T05:27:06;29.40;68.90
27779;DHT22;30234;48.090;11.464;2023-06-26T05:31:08;30.20;66.60
27779;DHT22;30234;48.090;11.464;2023-06-26T05:35:10;30.60;63.50
27779;DHT22;30234;48.090;11.464;2023-06-26T05:39:11;31.20;60.70
27779;DHT22;30234;48.090;11.464;2023-06-26T05:43:12;31.20;60.30
27779;DHT22;30234;48.090;11.464;2023-06-26T05:47:13;31.10;59.40
27779;DHT22;30234;48.090;11.464;2023-06-26T05:51:14;31.40;58.50
27779;DHT22;30234;48.090;11.464;2023-06-26T05:55:16;32.10;57.30
27779;DHT22;30234;48.090;11.464;2023-06-26T05:59:17;32.90;55.50
27779;DHT22;30234;48.090;11.464;2023-06-26T06:03:19;33.10;53.90
27779;DHT22;30234;48.090;11.464;2023-06-26T06:07:19;32.70;53.70
27779;DHT22;30234;48.090;11.464;2023-06-26T06:11:20;33.20;52.90
27779;DHT22;30234;48.090;11.464;2023-06-26T06:15:22;33.70;52.90
27779;DHT22;30234;48.090;11.464;2023-06-26T06:19:23;33.40;52.50
27779;DHT22;30234;48.090;11.464;2023-06-26T06:23:25;34.80;51.00
27779;DHT22;30234;48.090;11.464;2023-06-26T06:27:27;34.00;48.60
27779;DHT22;30234;48.090;11.464;2023-06-26T06:31:28;33.90;49.70
27779;DHT22;30234;48.090;11.464;2023-06-26T06:35:28;34.70;49.40
27779;DHT22;30234;48.090;11.464;2023-06-26T06:39:29;34.10;48.50
27779;DHT22;30234;48.090;11.464;2023-06-26T06:43:30;34.70;48.70
27779;DHT22;30234;48.090;11.464;2023-06-26T06:47:32;35.30;47.10
27779;DHT22;30234;48.090;11.464;2023-06-26T06:51:33;35.00;47.80
27779;DHT22;30234;48.090;11.464;2023-06-26T06:55:34;34.30;48.30
27779;DHT22;30234;48.090;11.464;2023-06-26T06:59:34;35.60;47.20
27779;DHT22;30234;48.090;11.464;2023-06-26T07:03:35;36.60;47.20
27779;DHT22;30234;48.090;11.464;2023-06-26T07:07:37;37.10;46.50
27779;DHT22;30234;48.090;11.464;2023-06-26T07:11:39;34.40;47.40
27779;DHT22;30234;48.090;11.464;2023-06-26T07:15:40;34.80;47.40
27779;DHT22;30234;48.090;11.464;2023-06-26T07:19:40;34.10;47.90
27779;DHT22;30234;48.090;11.464;2023-06-26T07:23:41;34.40;48.80
27779;DHT22;30234;48.090;11.464;2023-06-26T07:27:42;35.40;47.30
27779;DHT22;30234;48.090;11.464;2023-06-26T07:31:44;35.30;46.40
27779;DHT22;30234;48.090;11.464;2023-06-26T07:35:45;35.50;46.80
27779;DHT22;30234;48.090;11.464;2023-06-26T07:39:47;35.10;47.20
27779;DHT22;30234;48.090;11.464;2023-06-26T07:43:48;35.30;46.90
27779;DHT22;30234;48.090;11.464;2023-06-26T07:47:49;35.10;47.40
27779;DHT22;30234;48.090;11.464;2023-06-26T07:51:50;34.60;48.10
27779;DHT22;30234;48.090;11.464;2023-06-26T07:55:50;34.80;47.80
27779;DHT22;30234;48.090;11.464;2023-06-26T07:59:51;36.60;47.00
27779;DHT22;30234;48.090;11.464;2023-06-26T08:03:52;37.70;44.40
27779;DHT22;30234;48.090;11.464;2023-06-26T08:07:53;36.50;45.10
27779;DHT22;30234;48.090;11.464;2023-06-26T08:11:54;36.70;45.80
27779;DHT22;30234;48.090;11.464;2023-06-26T08:15:55;37.30;45.40
27779;DHT22;30234;48.090;11.464;2023-06-26T08:19:56;37.00;45.00
27779;DHT22;30234;48.090;11.464;2023-06-26T08:23:57;37.60;44.50
27779;DHT22;30234;48.090;11.464;2023-06-26T08:27:58;37.70;44.40
27779;DHT22;30234;48.090;11.464;2023-06-26T08:31:59;37.60;44.50
27779;DHT22;30234;48.090;11.464;2023-06-26T08:36:02;38.40;43.70
27779;DHT22;30234;48.090;11.464;2023-06-26T08:40:03;38.00;44.10
27779;DHT22;30234;48.090;11.464;2023-06-26T08:44:05;37.60;43.50
27779;DHT22;30234;48.090;11.464;2023-06-26T08:48:08;37.50;43.60
27779;DHT22;30234;48.090;11.464;2023-06-26T08:52:17;37.60;43.20
27779;DHT22;30234;48.090;11.464;2023-06-26T08:56:22;36.20;44.20
27779;DHT22;30234;48.090;11.464;2023-06-26T09:00:23;36.70;42.80
27779;DHT22;30234;48.090;11.464;2023-06-26T09:04:25;36.20;43.70
27779;DHT22;30234;48.090;11.464;2023-06-26T09:08:26;37.40;43.20
27779;DHT22;30234;48.090;11.464;2023-06-26T09:12:27;36.60;43.20
27779;DHT22;30234;48.090;11.464;2023-06-26T09:16:28;36.50;43.40
27779;DHT22;30234;48.090;11.464;2023-06-26T09:20:29;36.10;44.70
27779;DHT22;30234;48.090;11.464;2023-06-26T09:24:33;36.70;43.90
27779;DHT22;30234;48.090;11.464;2023-06-26T09:28:35;36.70;43.50
27779;DHT22;30234;48.090;11.464;2023-06-26T09:32:36;35.20;42.50
27779;DHT22;30234;48.090;11.464;2023-06-26T09:36:37;34.20;44.80
27779;DHT22;30234;48.090;11.464;2023-06-26T09:40:38;34.00;44.80
27779;DHT22;30234;48.090;11.464;2023-06-26T09:44:44;33.60;43.60
27779;DHT22;30234;48.090;11.464;2023-06-26T09:48:45;34.30;43.90
27779;DHT22;30234;48.090;11.464;2023-06-26T09:52:46;34.20;43.40
27779;DHT22;30234;48.090;11.464;2023-06-26T09:56:47;32.60;45.00
27779;DHT22;30234;48.090;11.464;2023-06-26T10:00:48;33.90;44.20
27779;DHT22;30234;48.090;11.464;2023-06-26T10:04:49;34.60;42.10
27779;DHT22;30234;48.090;11.464;2023-06-26T10:08:51;35.10;42.10
27779;DHT22;30234;48.090;11.464;2023-06-26T10:12:54;36.00;40.50
27779;DHT22;30234;48.090;11.464;2023-06-26T10:17:02;34.80;41.30
27779;DHT22;30234;48.090;11.464;2023-06-26T10:21:05;35.30;41.60
27779;DHT22;30234;48.090;11.464;2023-06-26T10:25:09;36.00;40.20
27779;DHT22;30234;48.090;11.464;2023-06-26T10:29:13;36.50;40.70
27779;DHT22;30234;48.090;11.464;2023-06-26T10:33:16;37.10;39.30
27779;DHT22;30234;48.090;11.464;2023-06-26T10:37:17;36.00;40.30
27779;DHT22;30234;48.090;11.464;2023-06-26T10:41:22;33.90;42.30
27779;DHT22;30234;48.090;11.464;2023-06-26T10:45:28;35.00;41.10
27779;DHT22;30234;48.090;11.464;2023-06-26T10:49:29;36.80;39.40
27779;DHT22;30234;48.090;11.464;2023-06-26T10:53:30;36.60;38.90
27779;DHT22;30234;48.090;11.464;2023-06-26T10:57:38;36.00;40.20
27779;DHT22;30234;48.090;11.464;2023-06-26T11:01:43;35.10;41.50
27779;DHT22;30234;48.090;11.464;2023-06-26T11:05:45;34.50;41.50
27779;DHT22;30234;48.090;11.464;2023-06-26T11:10:09;34.00;42.90
27779;DHT22;30234;48.090;11.464;2023-06-26T11:14:11;33.70;42.60
27779;DHT22;30234;48.090;11.464;2023-06-26T11:18:13;32.90;44.40
27779;DHT22;30234;48.090;11.464;2023-06-26T11:22:15;34.70;42.90
27779;DHT22;30234;48.090;11.464;2023-06-26T11:26:17;34.60;42.60
27779;DHT22;30234;48.090;11.464;2023-06-26T11:30:25;34.80;42.50
27779;DHT22;30234;48.090;11.464;2023-06-26T11:34:30;33.60;43.20
27779;DHT22;30234;48.090;11.464;2023-06-26T11:38:37;34.10;43.60
27779;DHT22;30234;48.090;11.464;2023-06-26T11:42:38;34.40;42.10
27779;DHT22;30234;48.090;11.464;2023-06-26T11:46:39;35.10;41.30
27779;DHT22;30234;48.090;11.464;2023-06-26T11:50:40;34.60;42.00
27779;DHT22;30234;48.090;11.464;2023-06-26T11:54:42;33.00;45.60
27779;DHT22;30234;48.090;11.464;2023-06-26T11:59:00;34.20;44.40
27779;DHT22;30234;48.090;11.464;2023-06-26T12:03:02;33.10;45.20
27779;DHT22;30234;48.090;11.464;2023-06-26T12:07:04;33.70;45.00
27779;DHT22;30234;48.090;11.464;2023-06-26T12:11:08;34.60;44.40
27779;DHT22;30234;48.090;11.464;2023-06-26T12:15:14;33.60;44.30
27779;DHT22;30234;48.090;11.464;2023-06-26T12:19:16;33.80;44.00
27779;DHT22;30234;48.090;11.464;2023-06-26T12:23:17;33.80;44.00
27779;DHT22;30234;48.090;11.464;2023-06-26T12:27:18;34.90;43.00
27779;DHT22;30234;48.090;11.464;2023-06-26T12:31:21;34.50;42.50
27779;DHT22;30234;48.090;11.464;2023-06-26T12:35:22;34.50;42.50
27779;DHT22;30234;48.090;11.464;2023-06-26T12:39:23;35.10;41.50
27779;DHT22;30234;48.090;11.464;2023-06-26T12:43:26;35.00;42.70
27779;DHT22;30234;48.090;11.464;2023-06-26T12:47:29;35.50;41.90
27779;DHT22;30234;48.090;11.464;2023-06-26T12:51:31;34.60;42.40
27779;DHT22;30234;48.090;11.464;2023-06-26T12:55:32;34.10;42.80
27779;DHT22;30234;48.090;11.464;2023-06-26T12:59:38;34.60;43.40
27779;DHT22;30234;48.090;11.464;2023-06-26T13:03:39;35.60;42.00
27779;DHT22;30234;48.090;11.464;2023-06-26T13:07:40;35.60;40.90
27779;DHT22;30234;48.090;11.464;2023-06-26T13:11:41;34.30;41.90
27779;DHT22;30234;48.090;11.464;2023-06-26T13:15:42;33.60;43.90
27779;DHT22;30234;48.090;11.464;2023-06-26T13:19:43;33.10;44.70
27779;DHT22;30234;48.090;11.464;2023-06-26T13:23:44;32.80;45.20
27779;DHT22;30234;48.090;11.464;2023-06-26T13:27:45;32.30;46.10
27779;DHT22;30234;48.090;11.464;2023-06-26T13:31:46;32.30;46.60
27779;DHT22;30234;48.090;11.464;2023-06-26T13:35:47;32.90;45.50
27779;DHT22;30234;48.090;11.464;2023-06-26T13:39:48;34.20;43.20
27779;DHT22;30234;48.090;11.464;2023-06-26T13:43:50;35.80;42.00
27779;DHT22;30234;48.090;11.464;2023-06-26T13:47:51;34.80;43.20
27779;DHT22;30234;48.090;11.464;2023-06-26T13:51:52;33.90;44.50
27779;DHT22;30234;48.090;11.464;2023-06-26T13:55:53;33.80;44.70
27779;DHT22;30234;48.090;11.464;2023-06-26T13:59:54;33.90;44.60
27779;DHT22;30234;48.090;11.464;2023-06-26T14:03:55;33.40;45.10
27779;DHT22;30234;48.090;11.464;2023-06-26T14:07:56;32.70;46.30
27779;DHT22;30234;48.090;11.464;2023-06-26T14:11:57;33.20;46.20
27779;DHT22;30234;48.090;11.464;2023-06-26T14:15:58;34.10;44.60
27779;DHT22;30234;48.090;11.464;2023-06-26T14:19:59;34.40;44.50
27779;DHT22;30234;48.090;11.464;2023-06-26T14:24:00;35.50;43.20
27779;DHT22;30234;48.090;11.464;2023-06-26T14:28:01;34.50;43.20
27779;DHT22;30234;48.090;11.464;2023-06-26T14:32:02;33.60;45.70
27779;DHT22;30234;48.090;11.464;2023-06-26T14:36:03;34.00;44.70
27779;DHT22;30234;48.090;11.464;2023-06-26T14:40:06;35.20;43.60
27779;DHT22;30234;48.090;11.464;2023-06-26T14:44:08;34.80;43.10
27779;DHT22;30234;48.090;11.464;2023-06-26T14:48:11;35.30;42.80
27779;DHT22;30234;48.090;11.464;2023-06-26T14:52:12;35.70;42.10
27779;DHT22;30234;48.090;11.464;2023-06-26T14:56:13;34.00;42.60
27779;DHT22;30234;48.090;11.464;2023-06-26T15:00:14;33.80;43.10
27779;DHT22;30234;48.090;11.464;2023-06-26T15:04:15;34.40;42.50
27779;DHT22;30234;48.090;11.464;2023-06-26T15:08:16;35.00;41.80
27779;DHT22;30234;48.090;11.464;2023-06-26T15:12:17;36.30;40.40
27779;DHT22;30234;48.090;11.464;2023-06-26T15:16:18;35.80;40.60
27779;DHT22;30234;48.090;11.464;2023-06-26T15:20:18;33.60;43.00
27779;DHT22;30234;48.090;11.464;2023-06-26T15:24:19;32.60;45.40
27779;DHT22;30234;48.090;11.464;2023-06-26T15:28:20;31.90;46.10
27779;DHT22;30234;48.090;11.464;2023-06-26T15:32:21;31.40;47.20
27779;DHT22;30234;48.090;11.464;2023-06-26T15:36:22;30.80;48.10
27779;DHT22;30234;48.090;11.464;2023-06-26T15:40:23;30.30;49.20
27779;DHT22;30234;48.090;11.464;2023-06-26T15:44:24;29.90;49.80
27779;DHT22;30234;48.090;11.464;2023-06-26T15:48:25;29.50;55.70
27779;DHT22;30234;48.090;11.464;2023-06-26T15:52:26;28.60;60.10
27779;DHT22;30234;48.090;11.464;2023-06-26T15:56:27;27.90;62.30
27779;DHT22;30234;48.090;11.464;2023-06-26T16:00:27;27.40;63.20
27779;DHT22;30234;48.090;11.464;2023-06-26T16:04:28;27.20;63.00
27779;DHT22;30234;48.090;11.464;2023-06-26T16:08:32;27.10;63.40
27779;DHT22;30234;48.090;11.464;2023-06-26T16:12:33;27.10;63.30
27779;DHT22;30234;48.090;11.464;2023-06-26T16:16:34;27.90;62.00
27779;DHT22;30234;48.090;11.464;2023-06-26T16:20:34;28.60;60.10
27779;DHT22;30234;48.090;11.464;2023-06-26T16:24:35;29.30;59.40
27779;DHT22;30234;48.090;11.464;2023-06-26T16:28:36;29.30;59.30
27779;DHT22;30234;48.090;11.464;2023-06-26T16:32:37;29.40;59.10
27779;DHT22;30234;48.090;11.464;2023-06-26T16:36:38;29.90;57.80
27779;DHT22;30234;48.090;11.464;2023-06-26T16:40:39;29.10;58.50
27779;DHT22;30234;48.090;11.464;2023-06-26T16:44:40;28.60;58.80
27779;DHT22;30234;48.090;11.464;2023-06-26T16:48:40;28.20;59.80
27779;DHT22;30234;48.090;11.464;2023-06-26T16:52:41;28.00;60.90
27779;DHT22;30234;48.090;11.464;2023-06-26T16:56:43;27.90;61.80
27779;DHT22;30234;48.090;11.464;2023-06-26T17:00:45;27.80;61.70
27779;DHT22;30234;48.090;11.464;2023-06-26T17:04:46;27.70;62.00
27779;DHT22;30234;48.090;11.464;2023-06-26T17:08:47;27.60;62.30
27779;DHT22;30234;48.090;11.464;2023-06-26T17:12:48;27.60;62.90
27779;DHT22;30234;48.090;11.464;2023-06-26T17:16:48;27.50;62.60
27779;DHT22;30234;48.090;11.464;2023-06-26T17:20:49;27.50;62.70
27779;DHT22;30234;48.090;11.464;2023-06-26T17:24:50;27.40;62.90
27779;DHT22;30234;48.090;11.464;2023-06-26T17:28:51;27.60;62.60
27779;DHT22;30234;48.090;11.464;2023-06-26T17:32:52;27.90;62.40
27779;DHT22;30234;48.090;11.464;2023-06-26T17:36:54;28.30;61.80
27779;DHT22;30234;48.090;11.464;2023-06-26T17:40:55;28.70;61.90
27779;DHT22;30234;48.090;11.464;2023-06-26T17:44:56;28.30;63.00
27779;DHT22;30234;48.090;11.464;2023-06-26T17:48:56;28.10;63.70
27779;DHT22;30234;48.090;11.464;2023-06-26T17:52:57;27.90;64.70
27779;DHT22;30234;48.090;11.464;2023-06-26T17:57:01;27.60;66.00
27779;DHT22;30234;48.090;11.464;2023-06-26T18:01:02;26.90;68.70
27779;DHT22;30234;48.090;11.464;2023-06-26T18:05:03;26.10;72.50
27779;DHT22;30234;48.090;11.464;2023-06-26T18:09:04;25.50;75.60
27779;DHT22;30234;48.090;11.464;2023-06-26T18:13:05;25.10;78.00
27779;DHT22;30234;48.090;11.464;2023-06-26T18:17:06;24.70;79.90
27779;DHT22;30234;48.090;11.464;2023-06-26T18:21:07;24.40;82.30
27779;DHT22;30234;48.090;11.464;2023-06-26T18:25:08;24.20;84.90
27779;DHT22;30234;48.090;11.464;2023-06-26T18:29:09;24.10;86.80
27779;DHT22;30234;48.090;11.464;2023-06-26T18:33:10;24.00;88.50
27779;DHT22;30234;48.090;11.464;2023-06-26T18:37:11;24.00;90.10
27779;DHT22;30234;48.090;11.464;2023-06-26T18:41:12;23.80;90.90
27779;DHT22;30234;48.090;11.464;2023-06-26T18:45:13;23.80;92.00
27779;DHT22;30234;48.090;11.464;2023-06-26T18:49:14;23.70;93.50
27779;DHT22;30234;48.090;11.464;2023-06-26T18:53:15;23.60;95.30
27779;DHT22;30234;48.090;11.464;2023-06-26T18:57:16;23.40;97.30
27779;DHT22;30234;48.090;11.464;2023-06-26T19:01:17;23.30;99.90
27779;DHT22;30234;48.090;11.464;2023-06-26T19:05:18;23.20;99.90
27779;DHT22;30234;48.090;11.464;2023-06-26T19:09:20;23.00;99.90
27779;DHT22;30234;48.090;11.464;2023-06-26T19:13:22;22.80;99.90
27779;DHT22;30234;48.090;11.464;2023-06-26T19:17:23;22.60;99.90
27779;DHT22;30234;48.090;11.464;2023-06-26T19:21:23;22.40;99.90
27779;DHT22;30234;48.090;11.464;2023-06-26T19:25:25;22.30;99.90
27779;DHT22;30234;48.090;11.464;2023-06-26T19:29:26;22.20;99.90
27779;DHT22;30234;48.090;11.464;2023-06-26T19:33:26;22.10;99.90
27779;DHT22;30234;48.090;11.464;2023-06-26T19:37:28;21.90;99.90
27779;DHT22;30234;48.090;11.464;2023-06-26T19:41:29;21.70;99.90
27779;DHT22;30234;48.090;11.464;2023-06-26T19:45:30;21.60;99.90
27779;DHT22;30234;48.090;11.464;2023-06-26T19:49:31;21.50;99.90
27779;DHT22;30234;48.090;11.464;2023-06-26T19:53:32;21.40;99.90
27779;DHT22;30234;48.090;11.464;2023-06-26T19:57:33;21.20;99.90
27779;DHT22;30234;48.090;11.464;2023-06-26T20:01:34;21.10;99.90
27779;DHT22;30234;48.090;11.464;2023-06-26T20:05:35;21.00;99.90
27779;DHT22;30234;48.090;11.464;2023-06-26T20:09:37;20.90;99.90
27779;DHT22;30234;48.090;11.464;2023-06-26T20:13:38;20.70;99.90
27779;DHT22;30234;48.090;11.464;2023-06-26T20:17:38;20.70;99.90
27779;DHT22;30234;48.090;11.464;2023-06-26T20:21:39;20.60;99.90
27779;DHT22;30234;48.090;11.464;2023-06-26T20:25:40;20.60;99.90
27779;DHT22;30234;48.090;11.464;2023-06-26T20:29:42;20.60;99.90
27779;DHT22;30234;48.090;11.464;2023-06-26T20:33:43;20.60;99.90
27779;DHT22;30234;48.090;11.464;2023-06-26T20:37:44;20.50;99.90
27779;DHT22;30234;48.090;11.464;2023-06-26T20:41:45;20.40;99.90
27779;DHT22;30234;48.090;11.464;2023-06-26T20:45:46;20.30;99.90
27779;DHT22;30234;48.090;11.464;2023-06-26T20:49:50;20.30;99.90
27779;DHT22;30234;48.090;11.464;2023-06-26T20:53:52;20.30;99.90
27779;DHT22;30234;48.090;11.464;2023-06-26T20:57:53;20.20;99.90
27779;DHT22;30234;48.090;11.464;2023-06-26T21:01:54;20.20;99.90
27779;DHT22;30234;48.090;11.464;2023-06-26T21:05:55;20.10;99.90
27779;DHT22;30234;48.090;11.464;2023-06-26T21:09:58;20.10;99.90
27779;DHT22;30234;48.090;11.464;2023-06-26T21:14:00;20.00;99.90
27779;DHT22;30234;48.090;11.464;2023-06-26T21:18:00;19.90;99.90
27779;DHT22;30234;48.090;11.464;2023-06-26T21:22:01;19.80;99.90
27779;DHT22;30234;48.090;11.464;2023-06-26T21:26:02;19.60;99.90
27779;DHT22;30234;48.090;11.464;2023-06-26T21:30:04;19.60;99.90
27779;DHT22;30234;48.090;11.464;2023-06-26T21:34:07;19.60;99.90
27779;DHT22;30234;48.090;11.464;2023-06-26T21:38:08;19.70;99.90
27779;DHT22;30234;48.090;11.464;2023-06-26T21:42:10;19.70;99.90
27779;DHT22;30234;48.090;11.464;2023-06-26T21:46:10;19.70;99.90
27779;DHT22;30234;48.090;11.464;2023-06-26T21:50:11;19.60;99.90
27779;DHT22;30234;48.090;11.464;2023-06-26T21:54:12;19.60;99.90
27779;DHT22;30234;48.090;11.464;2023-06-26T21:58:13;19.80;99.90
27779;DHT22;30234;48.090;11.464;2023-06-26T22:02:14;19.90;99.90
27779;DHT22;30234;48.090;11.464;2023-06-26T22:06:15;20.10;99.90
27779;DHT22;30234;48.090;11.464;2023-06-26T22:10:16;20.20;99.90
27779;DHT22;30234;48.090;11.464;2023-06-26T22:14:17;20.30;99.90
27779;DHT22;30234;48.090;11.464;2023-06-26T22:18:17;20.40;99.90
27779;DHT22;30234;48.090;11.464;2023-06-26T22:22:19;20.40;99.90
27779;DHT22;30234;48.090;11.464;2023-06-26T22:26:20;20.40;99.90
27779;DHT22;30234;48.090;11.464;2023-06-26T22:30:23;20.40;99.90
27779;DHT22;30234;48.090;11.464;2023-06-26T22:34:24;20.40;99.90
27779;DHT22;30234;48.090;11.464;2023-06-26T22:38:25;20.40;99.90
27779;DHT22;30234;48.090;11.464;2023-06-26T22:42:26;20.40;99.90
27779;DHT22;30234;48.090;11.464;2023-06-26T22:46:27;20.40;99.90
27779;DHT22;30234;48.090;11.464;2023-06-26T22:50:28;20.40;99.90
27779;DHT22;30234;48.090;11.464;2023-06-26T22:54:29;20.40;99.90
27779;DHT22;30234;48.090;11.464;2023-06-26T22:58:31;20.30;99.90
27779;DHT22;30234;48.090;11.464;2023-06-26T23:02:32;20.30;99.90
27779;DHT22;30234;48.090;11.464;2023-06-26T23:06:33;20.20;99.90
27779;DHT22;30234;48.090;11.464;2023-06-26T23:10:34;20.10;99.90
27779;DHT22;30234;48.090;11.464;2023-06-26T23:14:35;20.10;99.50
27779;DHT22;30234;48.090;11.464;2023-06-26T23:18:36;20.10;99.50
27779;DHT22;30234;48.090;11.464;2023-06-26T23:22:37;20.10;99.10
27779;DHT22;30234;48.090;11.464;2023-06-26T23:26:38;20.00;99.10
27779;DHT22;30234;48.090;11.464;2023-06-26T23:30:39;19.90;98.90
27779;DHT22;30234;48.090;11.464;2023-06-26T23:34:42;19.80;98.50
27779;DHT22;30234;48.090;11.464;2023-06-26T23:38:43;19.70;98.70
27779;DHT22;30234;48.090;11.464;2023-06-26T23:42:44;19.70;98.70
27779;DHT22;30234;48.090;11.464;2023-06-26T23:46:46;19.60;98.50
27779;DHT22;30234;48.090;11.464;2023-06-26T23:50:47;19.50;98.50
27779;DHT22;30234;48.090;11.464;2023-06-26T23:54:47;19.40;98.60
27779;DHT22;30234;48.090;11.464;2023-06-26T23:58:48;19.20;98.90
